Time;durP1;ratioP1;P1;durP2;ratioP2;P2;SDS_P1;SDS_P2;PMS_P1;PMS_P2;Temp;Humidity;BMP_temperature;BMP_pressure;BME280_temperature;BME280_humidity;BME280_pressure;Samples;Min_cycle;Max_cycle;Signal;HPM_P1;HPM_P2
2023/04/25 00:00:28;;;;;;;2.60;2.40;;;;;;;;;;5040254;28;20103;-68
2023/04/25 00:02:56;;;;;;;3.05;2.30;;;;;;;;;;5039437;28;20052;-68
2023/04/25 00:05:22;;;;;;;2.85;2.25;;;;;;;;;;5040860;28;20041;-68
2023/04/25 00:07:49;;;;;;;3.28;2.10;;;;;;;;;;5040096;28;20057;-69
2023/04/25 00:10:15;;;;;;;5.50;2.30;;;;;;;;;;5040847;28;20044;-68
2023/04/25 00:12:41;;;;;;;3.33;2.20;;;;;;;;;;5040345;28;20134;-68
2023/04/25 00:15:07;;;;;;;3.55;2.20;;;;;;;;;;5041407;28;20106;-68
2023/04/25 00:17:34;;;;;;;4.72;2.17;;;;;;;;;;5039338;28;20025;-69
2023/04/25 00:20:00;;;;;;;5.15;2.25;;;;;;;;;;5040644;28;20447;-69
2023/04/25 00:22:26;;;;;;;6.60;2.20;;;;;;;;;;5040376;28;20044;-69
2023/04/25 00:24:53;;;;;;;2.55;2.10;;;;;;;;;;5039896;28;20063;-69
2023/04/25 00:27:18;;;;;;;3.88;2.35;;;;;;;;;;5040921;28;20049;-68
2023/04/25 00:29:44;;;;;;;3.38;2.22;;;;;;;;;;5055108;28;20477;-68
2023/04/25 00:32:10;;;;;;;3.97;2.25;;;;;;;;;;5038691;28;20087;-68
2023/04/25 00:34:35;;;;;;;2.30;2.10;;;;;;;;;;5037552;28;20044;-68
2023/04/25 00:37:04;;;;;;;4.85;2.20;;;;;;;;;;5038833;28;20041;-68
2023/04/25 00:39:30;;;;;;;3.42;2.80;;;;;;;;;;5038841;28;20045;-68
2023/04/25 00:41:56;;;;;;;4.03;2.28;;;;;;;;;;5037638;28;20052;-68
2023/04/25 00:44:22;;;;;;;2.08;1.90;;;;;;;;;;5038749;28;20600;-68
2023/04/25 00:46:49;;;;;;;3.05;2.17;;;;;;;;;;5038402;28;20052;-68
2023/04/25 00:49:16;;;;;;;3.63;2.35;;;;;;;;;;5043743;28;20037;-69
2023/04/25 00:51:43;;;;;;;2.03;1.65;;;;;;;;;;5041987;28;20049;-68
2023/04/25 00:54:10;;;;;;;3.30;1.98;;;;;;;;;;5042088;28;20049;-69
2023/04/25 00:56:35;;;;;;;4.68;1.98;;;;;;;;;;5042551;28;20045;-69
2023/04/25 00:59:01;;;;;;;3.80;2.10;;;;;;;;;;5044037;28;20049;-69
2023/04/25 01:01:27;;;;;;;3.92;1.80;;;;;;;;;;5043843;28;20041;-69
2023/04/25 01:03:53;;;;;;;4.88;1.95;;;;;;;;;;5041791;28;20590;-68
2023/04/25 01:06:19;;;;;;;1.90;1.70;;;;;;;;;;5042121;28;20135;-68
2023/04/25 01:08:44;;;;;;;2.25;1.67;;;;;;;;;;5041386;28;20063;-68
2023/04/25 01:11:10;;;;;;;2.78;1.50;;;;;;;;;;5043792;28;20151;-69
2023/04/25 01:13:35;;;;;;;1.65;1.55;;;;;;;;;;5041715;28;20159;-68
2023/04/25 01:16:02;;;;;;;3.05;1.50;;;;;;;;;;5042950;28;20071;-69
2023/04/25 01:18:27;;;;;;;2.88;1.52;;;;;;;;;;5039262;28;20132;-69
2023/04/25 01:20:54;;;;;;;1.85;1.48;;;;;;;;;;5040305;28;20045;-69
2023/04/25 01:23:21;;;;;;;2.92;1.50;;;;;;;;;;5037134;28;20690;-69
2023/04/25 01:25:50;;;;;;;1.70;1.60;;;;;;;;;;5038820;28;20154;-69
2023/04/25 01:28:16;;;;;;;1.60;1.50;;;;;;;;;;5039274;28;20099;-69
2023/04/25 01:30:42;;;;;;;2.65;1.65;;;;;;;;;;5041310;28;20045;-68
2023/04/25 01:33:09;;;;;;;1.58;1.40;;;;;;;;;;5042689;28;20056;-68
2023/04/25 01:35:34;;;;;;;6.05;1.63;;;;;;;;;;5041575;28;20098;-68
2023/04/25 01:38:00;;;;;;;1.60;1.50;;;;;;;;;;5042048;28;20230;-68
2023/04/25 01:40:27;;;;;;;1.95;1.45;;;;;;;;;;5042988;28;20033;-68
2023/04/25 01:42:52;;;;;;;2.03;1.80;;;;;;;;;;5042907;28;20711;-68
2023/04/25 01:45:19;;;;;;;2.60;1.70;;;;;;;;;;5041965;28;20040;-68
2023/04/25 01:47:48;;;;;;;2.95;1.70;;;;;;;;;;5042723;28;20040;-69
2023/04/25 01:50:17;;;;;;;3.20;1.80;;;;;;;;;;5041528;28;21095;-68
2023/04/25 01:52:43;;;;;;;1.67;1.17;;;;;;;;;;5041958;28;20194;-68
2023/04/25 01:55:09;;;;;;;3.72;1.65;;;;;;;;;;5041738;28;20178;-68
2023/04/25 01:57:38;;;;;;;2.13;1.92;;;;;;;;;;5041496;28;20039;-68
2023/04/25 02:00:06;;;;;;;1.48;1.33;;;;;;;;;;5041102;28;20052;-68
2023/04/25 02:02:38;;;;;;;2.35;1.50;;;;;;;;;;5043281;28;20527;-68
2023/04/25 02:05:06;;;;;;;1.70;1.48;;;;;;;;;;5040506;28;20045;-69
2023/04/25 02:07:34;;;;;;;3.00;1.60;;;;;;;;;;5040310;28;20049;-69
2023/04/25 02:10:00;;;;;;;2.33;1.52;;;;;;;;;;5057456;28;20044;-69
2023/04/25 02:12:29;;;;;;;2.00;1.40;;;;;;;;;;5040283;28;20052;-69
2023/04/25 02:14:54;;;;;;;1.80;1.60;;;;;;;;;;5041900;28;20045;-68
2023/04/25 02:17:36;;;;;;;1.80;1.30;;;;;;;;;;5040547;28;20037;-69
2023/04/25 02:20:02;;;;;;;2.25;1.20;;;;;;;;;;5040094;28;20938;-69
2023/04/25 02:22:30;;;;;;;2.10;1.90;;;;;;;;;;5040591;28;20041;-69
2023/04/25 02:24:55;;;;;;;2.25;1.70;;;;;;;;;;5039447;28;20041;-69
2023/04/25 02:27:21;;;;;;;3.03;1.70;;;;;;;;;;5040532;28;20037;-69
2023/04/25 02:29:46;;;;;;;3.08;1.55;;;;;;;;;;5039929;28;20127;-68
2023/04/25 02:32:12;;;;;;;1.90;1.60;;;;;;;;;;5040163;28;20052;-68
2023/04/25 02:34:37;;;;;;;1.90;1.48;;;;;;;;;;5039035;28;20088;-69
2023/04/25 02:37:03;;;;;;;3.70;1.83;;;;;;;;;;5041891;28;20288;-69
2023/04/25 02:39:28;;;;;;;2.33;1.65;;;;;;;;;;5024226;28;20493;-68
2023/04/25 02:41:55;;;;;;;1.92;1.63;;;;;;;;;;5039329;28;20405;-69
2023/04/25 02:44:20;;;;;;;2.50;1.52;;;;;;;;;;5041672;28;20047;-68
2023/04/25 02:46:46;;;;;;;2.33;1.73;;;;;;;;;;5039239;28;20056;-68
2023/04/25 02:49:11;;;;;;;2.20;1.60;;;;;;;;;;5041620;28;20044;-68
2023/04/25 02:51:37;;;;;;;2.85;1.60;;;;;;;;;;5039269;28;20041;-68
2023/04/25 02:54:02;;;;;;;3.95;1.60;;;;;;;;;;5040062;28;20045;-68
2023/04/25 02:56:29;;;;;;;1.83;1.38;;;;;;;;;;5038946;28;20045;-69
2023/04/25 02:58:55;;;;;;;1.98;1.80;;;;;;;;;;5007467;28;20049;-68
2023/04/25 03:01:21;;;;;;;2.47;1.38;;;;;;;;;;5033897;28;20056;-68
2023/04/25 03:03:46;;;;;;;1.42;1.30;;;;;;;;;;5020928;28;20049;-68
2023/04/25 03:06:12;;;;;;;1.60;1.50;;;;;;;;;;5020161;28;20115;-68
2023/04/25 03:08:37;;;;;;;1.92;1.65;;;;;;;;;;5019224;28;20347;-68
2023/04/25 03:11:03;;;;;;;1.70;1.52;;;;;;;;;;5018995;28;20526;-68
2023/04/25 03:13:29;;;;;;;4.00;1.77;;;;;;;;;;5020000;28;20494;-68
2023/04/25 03:15:55;;;;;;;1.40;1.30;;;;;;;;;;5019208;28;20076;-68
2023/04/25 03:18:21;;;;;;;2.92;1.23;;;;;;;;;;5020453;28;20402;-68
2023/04/25 03:20:46;;;;;;;3.97;1.65;;;;;;;;;;5019601;28;20478;-68
2023/04/25 03:23:12;;;;;;;2.05;1.35;;;;;;;;;;5025630;28;20410;-68
2023/04/25 03:25:41;;;;;;;1.70;1.60;;;;;;;;;;5026860;28;20410;-68
2023/04/25 03:28:07;;;;;;;3.92;1.70;;;;;;;;;;5024460;28;20634;-68
2023/04/25 03:30:32;;;;;;;2.30;1.45;;;;;;;;;;5029623;28;20124;-68
2023/04/25 03:32:59;;;;;;;6.47;1.70;;;;;;;;;;5018129;28;20049;-68
2023/04/25 03:35:24;;;;;;;2.72;1.92;;;;;;;;;;5034438;28;20521;-68
2023/04/25 03:37:50;;;;;;;2.05;1.40;;;;;;;;;;5039225;28;20079;-68
2023/04/25 03:40:21;;;;;;;1.67;1.50;;;;;;;;;;5039533;28;20047;-68
2023/04/25 03:43:06;;;;;;;1.52;1.15;;;;;;;;;;5021888;28;20135;-68
2023/04/25 03:45:33;;;;;;;1.70;1.55;;;;;;;;;;5017791;28;20029;-68
2023/04/25 03:47:58;;;;;;;4.75;1.65;;;;;;;;;;5021487;28;20103;-67
2023/04/25 03:50:26;;;;;;;3.10;1.40;;;;;;;;;;5020407;28;20049;-67
2023/04/25 03:52:52;;;;;;;1.83;1.50;;;;;;;;;;5019133;28;20045;-68
2023/04/25 03:55:17;;;;;;;2.05;1.10;;;;;;;;;;5019960;28;20398;-67
2023/04/25 03:57:43;;;;;;;2.97;1.40;;;;;;;;;;5020258;28;20355;-66
2023/04/25 04:00:09;;;;;;;3.95;1.48;;;;;;;;;;5017931;28;20045;-67
2023/04/25 04:02:40;;;;;;;11.23;1.98;;;;;;;;;;5024632;28;20098;-67
2023/04/25 04:05:07;;;;;;;2.30;1.70;;;;;;;;;;5025914;28;20041;-71
2023/04/25 04:07:40;;;;;;;1.50;1.35;;;;;;;;;;5018620;28;20045;-70
2023/04/25 04:10:09;;;;;;;2.67;1.42;;;;;;;;;;5019780;28;20127;-69
2023/04/25 04:12:38;;;;;;;4.43;1.70;;;;;;;;;;5019303;28;20075;-70
2023/04/25 04:15:05;;;;;;;3.80;1.83;;;;;;;;;;5017259;28;20064;-70
2023/04/25 04:17:32;;;;;;;4.30;1.80;;;;;;;;;;5017443;28;20101;-70
2023/04/25 04:19:57;;;;;;;1.80;1.60;;;;;;;;;;5017733;28;20143;-70
2023/04/25 04:22:24;;;;;;;2.67;1.98;;;;;;;;;;5013227;28;20488;-70
2023/04/25 04:24:51;;;;;;;2.40;1.45;;;;;;;;;;5013133;28;20095;-70
2023/04/25 04:27:51;;;;;;;3.15;1.50;;;;;;;;;;4975370;28;20054;-70
2023/04/25 04:30:24;;;;;;;2.55;1.20;;;;;;;;;;5006692;28;20399;-70
2023/04/25 04:32:56;;;;;;;2.05;1.20;;;;;;;;;;5008392;28;20089;-70
2023/04/25 04:35:23;;;;;;;2.80;1.80;;;;;;;;;;5006634;28;20046;-70
2023/04/25 04:37:49;;;;;;;1.52;1.42;;;;;;;;;;5004670;28;20053;-70
2023/04/25 04:40:17;;;;;;;4.13;1.67;;;;;;;;;;5003558;28;20037;-70
2023/04/25 04:43:10;;;;;;;2.10;1.25;;;;;;;;;;5005108;28;20046;-70
2023/04/25 04:45:49;;;;;;;1.77;1.65;;;;;;;;;;5004324;28;20503;-70
2023/04/25 04:48:39;;;;;;;2.15;1.50;;;;;;;;;;5003863;28;20056;-70
2023/04/25 04:51:36;;;;;;;2.97;1.27;;;;;;;;;;5018198;28;20510;-70
2023/04/25 04:54:09;;;;;;;4.85;1.70;;;;;;;;;;5008881;28;20084;-70
2023/04/25 04:56:58;;;;;;;1.80;1.17;;;;;;;;;;5022648;28;20037;-70
2023/04/25 04:59:46;;;;;;;4.10;1.25;;;;;;;;;;4992994;28;20050;-70
2023/04/25 05:02:30;;;;;;;3.10;1.20;;;;;;;;;;5017056;28;20556;-70
2023/04/25 05:05:08;;;;;;;1.48;1.33;;;;;;;;;;5022153;28;20053;-70
2023/04/25 05:07:57;;;;;;;1.77;1.33;;;;;;;;;;4973837;28;20049;-71
2023/04/25 05:10:51;;;;;;;1.77;1.67;;;;;;;;;;4997746;28;20132;-71
2023/04/25 05:13:34;;;;;;;1.25;1.02;;;;;;;;;;5010490;28;20181;-70
2023/04/25 05:16:11;;;;;;;1.23;1.13;;;;;;;;;;5020751;28;20411;-71
2023/04/25 05:18:55;;;;;;;1.67;1.52;;;;;;;;;;5021689;28;20133;-71
2023/04/25 05:21:27;;;;;;;1.65;1.55;;;;;;;;;;5019661;28;21178;-71
2023/04/25 05:24:05;;;;;;;5.97;2.00;;;;;;;;;;5020709;28;20054;-72
2023/04/25 05:26:31;;;;;;;2.35;1.55;;;;;;;;;;5030737;28;20098;-71
2023/04/25 05:29:07;;;;;;;2.53;1.67;;;;;;;;;;5040303;28;20106;-71
2023/04/25 05:31:36;;;;;;;8.98;1.80;;;;;;;;;;5014515;28;20038;-72
2023/04/25 05:34:07;;;;;;;;;;;;;;;;;;5016140;28;20045;-71
2023/04/25 05:36:53;;;;;;;2.85;1.73;;;;;;;;;;5041781;28;19928;-71
2023/04/25 05:39:19;;;;;;;1.92;1.73;;;;;;;;;;5041604;28;20045;-71
2023/04/25 05:42:03;;;;;;;3.47;2.00;;;;;;;;;;5035108;28;20075;-71
2023/04/25 05:44:47;;;;;;;4.25;1.73;;;;;;;;;;5022716;28;20102;-71
2023/04/25 05:47:31;;;;;;;2.80;1.90;;;;;;;;;;5021166;28;20076;-71
2023/04/25 05:50:29;;;;;;;2.20;2.00;;;;;;;;;;4968416;28;20506;-73
2023/04/25 05:53:09;;;;;;;3.05;1.90;;;;;;;;;;5021695;28;20423;-73
2023/04/25 05:55:38;;;;;;;2.67;1.95;;;;;;;;;;5020344;28;20401;-72
2023/04/25 05:58:19;;;;;;;2.42;1.90;;;;;;;;;;5021374;28;20107;-71
2023/04/25 06:00:46;;;;;;;4.43;1.98;;;;;;;;;;5021057;28;20049;-71
2023/04/25 06:03:14;;;;;;;5.43;1.50;;;;;;;;;;5020076;28;20132;-72
2023/04/25 06:05:44;;;;;;;3.47;1.90;;;;;;;;;;5054207;28;20119;-71
2023/04/25 06:08:09;;;;;;;3.42;1.77;;;;;;;;;;5040727;28;20068;-72
2023/04/25 06:10:37;;;;;;;3.60;1.60;;;;;;;;;;5040935;28;20041;-73
2023/04/25 06:13:03;;;;;;;1.98;1.25;;;;;;;;;;5042084;28;20579;-74
2023/04/25 06:15:32;;;;;;;1.50;1.40;;;;;;;;;;5039663;28;20037;-73
2023/04/25 06:17:59;;;;;;;1.15;1.05;;;;;;;;;;5023940;28;20551;-70
2023/04/25 06:20:25;;;;;;;3.20;1.50;;;;;;;;;;5042091;28;20033;-72
2023/04/25 06:22:52;;;;;;;6.70;1.80;;;;;;;;;;5040449;28;20311;-73
2023/04/25 06:25:18;;;;;;;2.72;1.52;;;;;;;;;;5040040;28;20048;-71
2023/04/25 06:27:44;;;;;;;1.75;1.60;;;;;;;;;;5039470;28;20045;-70
2023/04/25 06:30:11;;;;;;;3.85;1.42;;;;;;;;;;5020244;28;20041;-71
2023/04/25 06:32:37;;;;;;;4.82;1.60;;;;;;;;;;5036619;28;20128;-70
2023/04/25 06:35:04;;;;;;;2.10;1.55;;;;;;;;;;5020231;28;20045;-70
2023/04/25 06:37:30;;;;;;;1.10;1.10;;;;;;;;;;5019498;28;20045;-72
2023/04/25 06:39:55;;;;;;;1.70;1.40;;;;;;;;;;5019862;28;20515;-72
2023/04/25 06:42:22;;;;;;;2.72;1.48;;;;;;;;;;5033022;28;20067;-72
2023/04/25 06:44:57;;;;;;;3.60;1.60;;;;;;;;;;5019625;28;20063;-71
2023/04/25 06:47:22;;;;;;;4.25;1.60;;;;;;;;;;5019546;28;20390;-72
2023/04/25 06:49:49;;;;;;;2.50;1.70;;;;;;;;;;5038021;28;20385;-71
2023/04/25 06:52:14;;;;;;;2.17;1.63;;;;;;;;;;5039828;28;20044;-74
2023/04/25 06:54:40;;;;;;;1.95;1.38;;;;;;;;;;5040036;28;20044;-71
2023/04/25 06:57:18;;;;;;;3.28;1.50;;;;;;;;;;5039820;28;20509;-74
2023/04/25 06:59:43;;;;;;;1.88;1.63;;;;;;;;;;5038696;28;20087;-73
2023/04/25 07:02:09;;;;;;;2.17;1.42;;;;;;;;;;5041756;28;20523;-74
2023/04/25 07:04:34;;;;;;;3.72;1.27;;;;;;;;;;5041013;28;20032;-72
2023/04/25 07:07:02;;;;;;;2.00;1.40;;;;;;;;;;5040137;28;20049;-73
2023/04/25 07:09:37;;;;;;;2.00;1.00;;;;;;;;;;5037964;28;20567;-73
2023/04/25 07:12:04;;;;;;;1.88;1.23;;;;;;;;;;5039332;28;20049;-72
2023/04/25 07:14:29;;;;;;;3.08;1.00;;;;;;;;;;5021714;28;20048;-72
2023/04/25 07:16:56;;;;;;;1.83;1.10;;;;;;;;;;5039279;28;20043;-73
2023/04/25 07:19:26;;;;;;;2.75;1.15;;;;;;;;;;5039214;28;20045;-73
2023/04/25 07:21:53;;;;;;;1.85;1.27;;;;;;;;;;5037853;28;20110;-73
2023/04/25 07:24:19;;;;;;;2.15;1.42;;;;;;;;;;5039234;28;20041;-73
2023/04/25 07:26:46;;;;;;;1.83;1.27;;;;;;;;;;5039598;28;20116;-72
2023/04/25 07:29:21;;;;;;;2.35;1.30;;;;;;;;;;5039319;28;20071;-73
2023/04/25 07:31:47;;;;;;;12.73;1.70;;;;;;;;;;5021190;28;20049;-74
2023/04/25 07:34:13;;;;;;;3.55;1.58;;;;;;;;;;5021186;28;20239;-73
2023/04/25 07:36:38;;;;;;;2.38;1.80;;;;;;;;;;5019540;28;20128;-73
2023/04/25 07:39:05;;;;;;;1.52;1.35;;;;;;;;;;5019646;28;20069;-73
2023/04/25 07:41:30;;;;;;;4.88;1.30;;;;;;;;;;5019161;28;20501;-73
2023/04/25 07:43:56;;;;;;;5.22;1.85;;;;;;;;;;5022492;28;20049;-74
2023/04/25 07:46:21;;;;;;;1.75;1.27;;;;;;;;;;5023767;28;20087;-75
2023/04/25 07:48:47;;;;;;;1.35;1.00;;;;;;;;;;5030163;28;20565;-74
2023/04/25 07:51:13;;;;;;;1.30;1.02;;;;;;;;;;5018953;28;20049;-74
2023/04/25 07:53:39;;;;;;;3.33;1.17;;;;;;;;;;5017632;28;20256;-74
2023/04/25 07:56:09;;;;;;;1.52;1.42;;;;;;;;;;5019774;28;20493;-76
2023/04/25 07:58:38;;;;;;;2.00;1.10;;;;;;;;;;5019149;28;20055;-74
2023/04/25 08:01:06;;;;;;;1.90;1.25;;;;;;;;;;5029605;28;20077;-73
2023/04/25 08:03:34;;;;;;;4.75;1.90;;;;;;;;;;5019544;28;20037;-72
2023/04/25 08:06:02;;;;;;;1.33;1.20;;;;;;;;;;5033893;28;20037;-70
2023/04/25 08:08:31;;;;;;;1.95;1.25;;;;;;;;;;5018999;28;20391;-71
2023/04/25 08:10:56;;;;;;;2.10;1.40;;;;;;;;;;5020089;28;20486;-72
2023/04/25 08:13:21;;;;;;;3.38;1.20;;;;;;;;;;5019103;28;20099;-71
2023/04/25 08:15:47;;;;;;;4.40;1.13;;;;;;;;;;5018327;28;20095;-72
2023/04/25 08:18:13;;;;;;;1.23;1.10;;;;;;;;;;5017993;28;20045;-72
2023/04/25 08:20:38;;;;;;;1.63;1.10;;;;;;;;;;5018034;28;20059;-71
2023/04/25 08:23:07;;;;;;;3.00;1.40;;;;;;;;;;5015196;28;20040;-71
2023/04/25 08:26:11;;;;;;;2.42;1.15;;;;;;;;;;5014655;28;20049;-72
2023/04/25 08:28:38;;;;;;;3.30;1.40;;;;;;;;;;5038167;28;20044;-72
2023/04/25 08:31:04;;;;;;;2.70;1.30;;;;;;;;;;5038621;28;20494;-72
2023/04/25 08:33:38;;;;;;;2.13;1.50;;;;;;;;;;5037989;28;20132;-72
2023/04/25 08:36:17;;;;;;;1.73;1.13;;;;;;;;;;5023419;28;20110;-72
2023/04/25 08:38:42;;;;;;;1.52;1.15;;;;;;;;;;5037984;28;20048;-74
2023/04/25 08:41:11;;;;;;;1.33;1.20;;;;;;;;;;5037945;28;20052;-73
2023/04/25 08:43:37;;;;;;;1.40;1.27;;;;;;;;;;5037868;28;20040;-73
2023/04/25 08:46:03;;;;;;;3.03;1.38;;;;;;;;;;5037672;28;20110;-72
2023/04/25 08:48:36;;;;;;;4.50;1.20;;;;;;;;;;5037705;28;20045;-73
2023/04/25 08:51:06;;;;;;;3.22;1.50;;;;;;;;;;5038436;28;20048;-73
2023/04/25 08:53:33;;;;;;;2.00;0.90;;;;;;;;;;5005549;28;20470;-73
2023/04/25 08:56:01;;;;;;;1.75;1.23;;;;;;;;;;5021692;28;20049;-72
2023/04/25 08:58:30;;;;;;;4.70;1.38;;;;;;;;;;5021553;28;20045;-72
2023/04/25 09:00:55;;;;;;;1.75;1.10;;;;;;;;;;5039027;28;20076;-72
2023/04/25 09:03:24;;;;;;;2.42;1.30;;;;;;;;;;5037900;28;20052;-71
2023/04/25 09:05:51;;;;;;;1.40;1.10;;;;;;;;;;5034916;28;20988;-70
2023/04/25 09:08:16;;;;;;;1.65;1.55;;;;;;;;;;5020259;28;20107;-70
2023/04/25 09:10:42;;;;;;;1.52;1.30;;;;;;;;;;5017377;28;20046;-73
2023/04/25 09:13:11;;;;;;;5.97;1.40;;;;;;;;;;5018866;28;20112;-72
2023/04/25 09:15:57;;;;;;;1.63;1.30;;;;;;;;;;5019013;28;20375;-72
2023/04/25 09:18:49;;;;;;;4.20;1.40;;;;;;;;;;5021214;28;20045;-71
2023/04/25 09:21:15;;;;;;;4.35;1.30;;;;;;;;;;5021126;28;20650;-71
2023/04/25 09:23:51;;;;;;;3.67;1.27;;;;;;;;;;5021022;28;20049;-70
2023/04/25 09:26:21;;;;;;;1.40;1.30;;;;;;;;;;5021910;28;20456;-71
2023/04/25 09:28:48;;;;;;;6.50;1.60;;;;;;;;;;5021628;28;20075;-72
2023/04/25 09:31:24;;;;;;;8.68;1.65;;;;;;;;;;5022098;28;20048;-71
2023/04/25 09:33:59;;;;;;;4.25;1.67;;;;;;;;;;5020225;28;20049;-73
2023/04/25 09:36:26;;;;;;;4.85;1.30;;;;;;;;;;5021575;28;20037;-73
2023/04/25 09:39:00;;;;;;;2.22;0.75;;;;;;;;;;5021201;28;20049;-71
2023/04/25 09:41:37;;;;;;;1.10;0.80;;;;;;;;;;5020773;28;20449;-70
2023/04/25 09:44:03;;;;;;;1.42;1.17;;;;;;;;;;5040545;28;20073;-73
2023/04/25 09:46:37;;;;;;;5.28;1.45;;;;;;;;;;5041261;28;20470;-73
2023/04/25 09:49:08;;;;;;;2.05;1.30;;;;;;;;;;5041222;28;20041;-73
2023/04/25 09:52:14;;;;;;;1.15;1.02;;;;;;;;;;5006247;28;20133;-72
2023/04/25 09:54:49;;;;;;;4.65;1.40;;;;;;;;;;5032129;28;20042;-73
2023/04/25 09:57:23;;;;;;;1.58;1.10;;;;;;;;;;5037712;28;20049;-72
2023/04/25 09:59:52;;;;;;;1.45;0.93;;;;;;;;;;5036901;28;20256;-72
2023/04/25 10:02:20;;;;;;;2.78;1.67;;;;;;;;;;5036324;28;20593;-73
2023/04/25 10:04:53;;;;;;;5.38;1.75;;;;;;;;;;5021009;28;20481;-72
2023/04/25 10:07:35;;;;;;;1.70;1.33;;;;;;;;;;5017734;28;20053;-73
2023/04/25 10:10:03;;;;;;;2.72;1.60;;;;;;;;;;5020937;28;20041;-72
2023/04/25 10:12:30;;;;;;;3.10;1.30;;;;;;;;;;5021876;28;20087;-70
2023/04/25 10:14:57;;;;;;;3.22;1.40;;;;;;;;;;5022660;28;20056;-72
2023/04/25 10:17:23;;;;;;;2.78;1.38;;;;;;;;;;5021672;28;20516;-73
2023/04/25 10:19:49;;;;;;;2.35;1.48;;;;;;;;;;5021363;28;20050;-71
2023/04/25 10:22:32;;;;;;;1.60;1.38;;;;;;;;;;5021417;28;20052;-73
2023/04/25 10:24:58;;;;;;;2.33;1.70;;;;;;;;;;5021651;28;20080;-70
2023/04/25 10:27:26;;;;;;;1.30;1.20;;;;;;;;;;5034717;28;20052;-72
2023/04/25 10:30:06;;;;;;;1.38;1.13;;;;;;;;;;5022877;28;20056;-72
2023/04/25 10:32:34;;;;;;;2.80;1.20;;;;;;;;;;5012711;28;20049;-72
2023/04/25 10:35:24;;;;;;;1.60;1.08;;;;;;;;;;5022014;28;20461;-72
2023/04/25 10:38:09;;;;;;;2.22;1.10;;;;;;;;;;5021664;28;20206;-72
2023/04/25 10:40:34;;;;;;;1.25;1.00;;;;;;;;;;5021432;28;20041;-72
2023/04/25 10:43:36;;;;;;;2.17;1.30;;;;;;;;;;5021803;28;20054;-70
2023/04/25 10:46:02;;;;;;;1.55;1.13;;;;;;;;;;5034018;28;20605;-71
2023/04/25 10:48:29;;;;;;;2.95;1.20;;;;;;;;;;5021536;28;20133;-69
2023/04/25 10:51:08;;;;;;;5.03;1.20;;;;;;;;;;5017020;28;20488;-71
2023/04/25 10:53:34;;;;;;;1.40;1.00;;;;;;;;;;5020949;28;20041;-71
2023/04/25 10:55:59;;;;;;;3.15;1.52;;;;;;;;;;5020968;28;20056;-72
2023/04/25 10:58:26;;;;;;;3.85;1.38;;;;;;;;;;5021720;28;20064;-71
2023/04/25 11:00:51;;;;;;;1.85;1.20;;;;;;;;;;5020783;28;20045;-70
2023/04/25 11:03:17;;;;;;;1.27;1.17;;;;;;;;;;5019962;28;20076;-70
2023/04/25 11:05:45;;;;;;;0.90;0.90;;;;;;;;;;5020308;28;20063;-72
2023/04/25 11:08:13;;;;;;;2.08;1.08;;;;;;;;;;5021262;28;20490;-70
2023/04/25 11:10:39;;;;;;;1.90;1.20;;;;;;;;;;5021419;28;20036;-70
2023/04/25 11:13:05;;;;;;;1.60;1.27;;;;;;;;;;5019034;28;20516;-70
2023/04/25 11:15:30;;;;;;;2.60;1.20;;;;;;;;;;5020945;28;20053;-70
2023/04/25 11:17:56;;;;;;;1.35;1.20;;;;;;;;;;5019116;28;20041;-72
2023/04/25 11:20:25;;;;;;;1.25;1.15;;;;;;;;;;5021445;28;20399;-73
2023/04/25 11:22:51;;;;;;;1.38;1.20;;;;;;;;;;5020125;28;20551;-72
2023/04/25 11:25:16;;;;;;;1.48;1.27;;;;;;;;;;5020563;28;20049;-72
2023/04/25 11:27:56;;;;;;;3.20;0.90;;;;;;;;;;5020388;28;20053;-71
2023/04/25 11:30:23;;;;;;;0.85;0.80;;;;;;;;;;5021039;28;20052;-73
2023/04/25 11:32:49;;;;;;;1.92;1.15;;;;;;;;;;5020157;28;20060;-71
2023/04/25 11:35:16;;;;;;;1.85;1.00;;;;;;;;;;5019084;28;20081;-70
2023/04/25 11:37:43;;;;;;;1.25;1.15;;;;;;;;;;5019831;28;20037;-70
2023/04/25 11:40:09;;;;;;;1.30;1.17;;;;;;;;;;5019370;28;20056;-73
2023/04/25 11:42:42;;;;;;;1.60;1.45;;;;;;;;;;5018479;28;20068;-71
2023/04/25 11:45:09;;;;;;;3.85;1.45;;;;;;;;;;5018953;28;20627;-71
2023/04/25 11:47:35;;;;;;;5.88;1.13;;;;;;;;;;5019644;28;20080;-71
2023/04/25 11:50:05;;;;;;;3.75;1.63;;;;;;;;;;5022402;28;20049;-71
2023/04/25 11:52:41;;;;;;;4.80;1.77;;;;;;;;;;5030958;28;20470;-71
2023/04/25 11:55:13;;;;;;;3.45;2.25;;;;;;;;;;5019925;28;20041;-71
2023/04/25 11:57:40;;;;;;;2.75;2.17;;;;;;;;;;5014314;28;20629;-71
2023/04/25 12:00:16;;;;;;;3.10;1.58;;;;;;;;;;5018765;28;20110;-71
2023/04/25 12:02:44;;;;;;;3.25;2.10;;;;;;;;;;5019073;28;20045;-71
2023/04/25 12:05:11;;;;;;;4.85;2.20;;;;;;;;;;5019257;28;20064;-70
2023/04/25 12:07:37;;;;;;;2.30;1.60;;;;;;;;;;5017684;28;20422;-71
2023/04/25 12:10:07;;;;;;;1.67;1.55;;;;;;;;;;5017941;28;20045;-71
2023/04/25 12:12:37;;;;;;;1.98;1.15;;;;;;;;;;5018145;28;20045;-70
2023/04/25 12:15:19;;;;;;;2.75;2.13;;;;;;;;;;5019229;28;20045;-70
2023/04/25 12:17:49;;;;;;;1.63;1.40;;;;;;;;;;5016515;28;20049;-71
2023/04/25 12:20:20;;;;;;;1.20;1.10;;;;;;;;;;5019368;28;20558;-71
2023/04/25 12:22:47;;;;;;;1.55;1.30;;;;;;;;;;5018959;28;20104;-71
2023/04/25 12:25:34;;;;;;;1.00;1.00;;;;;;;;;;5018020;28;20585;-71
2023/04/25 12:28:31;;;;;;;0.90;0.90;;;;;;;;;;5015660;28;20056;-71
2023/04/25 12:31:01;;;;;;;2.85;1.50;;;;;;;;;;5008642;28;20902;-72
2023/04/25 12:33:32;;;;;;;2.58;1.20;;;;;;;;;;5019209;28;20057;-72
2023/04/25 12:35:58;;;;;;;1.92;1.20;;;;;;;;;;5019166;28;20061;-69
2023/04/25 12:38:27;;;;;;;4.60;1.10;;;;;;;;;;5025427;28;20094;-71
2023/04/25 12:40:53;;;;;;;0.90;0.90;;;;;;;;;;5028178;28;20148;-71
2023/04/25 12:43:19;;;;;;;1.08;1.00;;;;;;;;;;5020247;28;20564;-71
2023/04/25 12:45:48;;;;;;;1.00;1.00;;;;;;;;;;5019114;28;20046;-71
2023/04/25 12:48:13;;;;;;;1.75;1.08;;;;;;;;;;5021813;28;20053;-71
2023/04/25 12:50:39;;;;;;;0.95;0.90;;;;;;;;;;5021686;28;20055;-71
2023/04/25 12:53:04;;;;;;;0.90;0.90;;;;;;;;;;5022000;28;20049;-71
2023/04/25 12:55:30;;;;;;;2.20;0.90;;;;;;;;;;5021555;28;20045;-72
2023/04/25 12:57:55;;;;;;;1.10;1.00;;;;;;;;;;5021591;28;20735;-71
2023/04/25 13:00:21;;;;;;;1.83;1.27;;;;;;;;;;5020774;28;20053;-70
2023/04/25 13:02:49;;;;;;;0.80;0.80;;;;;;;;;;5020512;28;20490;-73
2023/04/25 13:05:15;;;;;;;1.23;1.02;;;;;;;;;;5021454;28;20053;-72
2023/04/25 13:07:40;;;;;;;0.90;0.90;;;;;;;;;;5021585;28;20046;-73
2023/04/25 13:10:07;;;;;;;1.25;1.15;;;;;;;;;;5021749;28;20149;-72
2023/04/25 13:12:32;;;;;;;3.22;1.40;;;;;;;;;;5021093;28;20053;-73
2023/04/25 13:14:58;;;;;;;1.25;1.10;;;;;;;;;;5021898;28;20084;-71
2023/04/25 13:17:23;;;;;;;2.00;1.67;;;;;;;;;;5021225;28;20084;-72
2023/04/25 13:19:49;;;;;;;2.42;1.38;;;;;;;;;;5021747;28;20053;-72
2023/04/25 13:22:16;;;;;;;1.00;0.90;;;;;;;;;;5019860;28;20111;-71
2023/04/25 13:24:42;;;;;;;1.25;1.00;;;;;;;;;;5021068;28;20060;-72
2023/04/25 13:27:08;;;;;;;1.00;0.85;;;;;;;;;;5021094;28;20041;-72
2023/04/25 13:29:35;;;;;;;3.50;1.40;;;;;;;;;;5021693;28;20083;-72
2023/04/25 13:32:03;;;;;;;1.08;1.00;;;;;;;;;;5020688;28;20953;-74
2023/04/25 13:34:29;;;;;;;0.63;0.63;;;;;;;;;;5020442;28;20049;-73
2023/04/25 13:36:55;;;;;;;0.80;0.80;;;;;;;;;;5021899;28;20041;-73
2023/04/25 13:39:20;;;;;;;2.00;0.70;;;;;;;;;;5020280;28;20378;-74
2023/04/25 13:41:46;;;;;;;1.98;0.63;;;;;;;;;;5016970;28;20041;-75
2023/04/25 13:44:11;;;;;;;0.75;0.75;;;;;;;;;;5017042;28;20048;-74
2023/04/25 13:46:37;;;;;;;0.98;0.75;;;;;;;;;;5014331;28;21069;-72
2023/04/25 13:49:03;;;;;;;2.53;1.00;;;;;;;;;;5021128;28;20052;-71
2023/04/25 13:51:30;;;;;;;1.30;1.20;;;;;;;;;;5021991;28;20048;-72
2023/04/25 13:53:56;;;;;;;1.92;1.27;;;;;;;;;;5020770;28;20053;-72
2023/04/25 13:56:23;;;;;;;1.55;1.27;;;;;;;;;;5020810;28;20088;-73
2023/04/25 13:58:49;;;;;;;2.53;1.13;;;;;;;;;;5022027;28;20096;-72
2023/04/25 14:01:15;;;;;;;1.85;1.33;;;;;;;;;;5021624;28;20502;-71
2023/04/25 14:03:41;;;;;;;1.63;1.33;;;;;;;;;;5021700;28;20140;-72
2023/04/25 14:06:06;;;;;;;1.40;1.30;;;;;;;;;;5022453;28;20098;-73
2023/04/25 14:08:32;;;;;;;1.27;1.17;;;;;;;;;;5018751;28;20095;-73
2023/04/25 14:10:57;;;;;;;1.45;0.85;;;;;;;;;;5021368;28;20057;-73
2023/04/25 14:13:23;;;;;;;1.23;1.13;;;;;;;;;;5021612;28;20076;-73
2023/04/25 14:15:50;;;;;;;1.25;1.15;;;;;;;;;;5018994;28;20064;-71
2023/04/25 14:18:15;;;;;;;4.72;1.30;;;;;;;;;;5019247;28;20045;-72
2023/04/25 14:20:41;;;;;;;1.85;1.48;;;;;;;;;;5019646;28;20375;-71
2023/04/25 14:23:06;;;;;;;1.70;1.20;;;;;;;;;;5021110;28;20095;-72
2023/04/25 14:25:32;;;;;;;1.02;0.90;;;;;;;;;;5018539;28;20516;-73
2023/04/25 14:27:57;;;;;;;1.23;1.10;;;;;;;;;;5020195;28;21061;-70
2023/04/25 14:30:23;;;;;;;1.17;1.08;;;;;;;;;;5020130;28;20041;-71
2023/04/25 14:32:49;;;;;;;1.20;1.05;;;;;;;;;;5021344;28;20060;-71
2023/04/25 14:35:14;;;;;;;1.08;0.85;;;;;;;;;;5020576;28;20041;-72
2023/04/25 14:37:40;;;;;;;0.75;0.75;;;;;;;;;;5019006;28;20036;-72
2023/04/25 14:40:10;;;;;;;1.45;1.05;;;;;;;;;;5021356;28;20144;-71
2023/04/25 14:42:35;;;;;;;0.30;0.30;;;;;;;;;;5020977;28;20154;-73
2023/04/25 14:45:02;;;;;;;0.80;0.80;;;;;;;;;;5021329;28;20053;-72
2023/04/25 14:47:27;;;;;;;0.90;0.90;;;;;;;;;;5020801;28;20494;-69
2023/04/25 14:49:54;;;;;;;0.63;0.63;;;;;;;;;;5020142;28;20045;-73
2023/04/25 14:52:20;;;;;;;2.45;0.70;;;;;;;;;;5020121;28;20041;-72
2023/04/25 14:54:47;;;;;;;1.50;0.60;;;;;;;;;;5019668;28;20045;-68